Time;durP1;ratioP1;P1;durP2;ratioP2;P2;SDS_P1;SDS_P2;PMS_P1;PMS_P2;Temp;Humidity;BMP_temperature;BMP_pressure;BME280_temperature;BME280_humidity;BME280_pressure;Samples;Min_cycle;Max_cycle;Signal;HPM_P1;HPM_P2
2022/06/24 00:01:12;;;;;;;2.60;1.83;;;;;;;;;;5090305;28;20392;-70
2022/06/24 00:03:38;;;;;;;1.83;1.52;;;;;;;;;;5073721;28;20113;-70
2022/06/24 00:06:12;;;;;;;2.88;2.05;;;;;;;;;;5107496;28;20045;-70
2022/06/24 00:08:48;;;;;;;5.53;1.80;;;;;;;;;;5083144;28;20294;-70
2022/06/24 00:11:14;;;;;;;6.72;2.40;;;;;;;;;;5069444;28;20414;-70
2022/06/24 00:13:41;;;;;;;4.05;2.20;;;;;;;;;;5087861;28;20087;-70
2022/06/24 00:16:07;;;;;;;7.75;2.13;;;;;;;;;;5082350;28;20059;-70
2022/06/24 00:18:33;;;;;;;3.58;1.80;;;;;;;;;;5087628;28;20041;-70
2022/06/24 00:20:59;;;;;;;3.53;2.08;;;;;;;;;;5073078;28;20045;-70
2022/06/24 00:23:25;;;;;;;3.20;2.10;;;;;;;;;;5098350;28;20059;-70
2022/06/24 00:25:51;;;;;;;2.67;1.73;;;;;;;;;;5085117;28;20117;-70
2022/06/24 00:28:18;;;;;;;4.20;1.85;;;;;;;;;;5078107;28;20040;-70
2022/06/24 00:30:45;;;;;;;4.50;2.45;;;;;;;;;;5086470;28;20040;-70
2022/06/24 00:33:19;;;;;;;6.15;2.50;;;;;;;;;;5070968;28;20065;-70
2022/06/24 00:35:45;;;;;;;4.03;2.60;;;;;;;;;;5082404;28;20052;-70
2022/06/24 00:38:25;;;;;;;6.32;2.15;;;;;;;;;;5085282;28;20044;-70
2022/06/24 00:40:56;;;;;;;5.97;2.35;;;;;;;;;;5083122;28;20055;-70
2022/06/24 00:43:27;;;;;;;3.83;2.40;;;;;;;;;;5073052;28;20101;-70
2022/06/24 00:45:57;;;;;;;6.85;2.25;;;;;;;;;;5067261;28;20037;-70
2022/06/24 00:48:25;;;;;;;4.80;2.15;;;;;;;;;;5067096;28;20049;-70
2022/06/24 00:50:51;;;;;;;3.03;2.20;;;;;;;;;;5080792;28;20487;-70
2022/06/24 00:53:18;;;;;;;3.08;2.03;;;;;;;;;;5082078;28;20053;-70
2022/06/24 00:55:46;;;;;;;6.03;2.35;;;;;;;;;;5066662;28;20067;-70
2022/06/24 00:58:13;;;;;;;5.05;2.58;;;;;;;;;;5082063;28;20051;-70
2022/06/24 01:00:41;;;;;;;8.63;2.83;;;;;;;;;;5066889;28;20136;-70
2022/06/24 01:03:07;;;;;;;5.53;2.33;;;;;;;;;;5066619;28;20036;-70
2022/06/24 01:05:34;;;;;;;3.65;2.38;;;;;;;;;;5066504;28;20056;-70
2022/06/24 01:08:07;;;;;;;5.03;2.58;;;;;;;;;;5066630;28;20041;-70
2022/06/24 01:10:34;;;;;;;4.30;2.10;;;;;;;;;;5066445;28;20045;-70
2022/06/24 01:13:00;;;;;;;7.20;2.47;;;;;;;;;;5066400;28;20045;-70
2022/06/24 01:15:26;;;;;;;4.95;2.25;;;;;;;;;;5066332;28;20256;-70
2022/06/24 01:17:52;;;;;;;6.43;2.20;;;;;;;;;;5066294;28;20037;-70
2022/06/24 01:20:18;;;;;;;10.25;2.67;;;;;;;;;;5066430;28;20068;-70
2022/06/24 01:22:45;;;;;;;4.05;2.30;;;;;;;;;;5068238;28;20045;-70
2022/06/24 01:25:11;;;;;;;4.18;2.33;;;;;;;;;;5078040;28;20041;-70
2022/06/24 01:27:38;;;;;;;4.45;2.35;;;;;;;;;;5081544;28;20052;-70
2022/06/24 01:30:05;;;;;;;4.95;2.47;;;;;;;;;;5072385;28;20047;-70
2022/06/24 01:32:31;;;;;;;4.63;2.47;;;;;;;;;;5073739;28;20108;-70
2022/06/24 01:34:57;;;;;;;3.75;2.38;;;;;;;;;;5070489;28;20040;-70
2022/06/24 01:37:24;;;;;;;3.35;2.35;;;;;;;;;;5074126;28;20404;-71
2022/06/24 01:39:50;;;;;;;9.50;2.37;;;;;;;;;;5065853;28;20044;-70
2022/06/24 01:42:16;;;;;;;5.53;2.47;;;;;;;;;;5095658;28;20287;-70
2022/06/24 01:44:42;;;;;;;3.38;2.45;;;;;;;;;;5065676;28;20044;-70
2022/06/24 01:47:09;;;;;;;3.47;2.65;;;;;;;;;;5081330;28;20051;-70
2022/06/24 01:49:35;;;;;;;6.70;2.58;;;;;;;;;;5065868;28;20045;-70
2022/06/24 01:52:02;;;;;;;4.20;2.78;;;;;;;;;;5065539;28;20126;-69
2022/06/24 01:54:28;;;;;;;5.03;2.60;;;;;;;;;;5065608;28;20053;-70
2022/06/24 01:56:54;;;;;;;4.15;2.70;;;;;;;;;;5065715;28;20045;-70
2022/06/24 01:59:21;;;;;;;4.15;2.50;;;;;;;;;;5080780;28;20087;-70
2022/06/24 02:01:47;;;;;;;3.70;2.85;;;;;;;;;;5081066;28;20045;-70
2022/06/24 02:04:14;;;;;;;4.10;2.47;;;;;;;;;;5065234;28;20044;-70
2022/06/24 02:06:40;;;;;;;10.52;3.38;;;;;;;;;;5065507;28;20125;-70
2022/06/24 02:09:06;;;;;;;5.03;2.63;;;;;;;;;;5079304;28;20041;-71
2022/06/24 02:14:18;;;;;;;5.50;2.88;;;;;;;;;;5065032;28;20068;-70
2022/06/24 02:16:46;;;;;;;4.07;2.95;;;;;;;;;;5080802;28;20049;-70
2022/06/24 02:19:12;;;;;;;5.43;3.05;;;;;;;;;;5080635;28;20049;-70
2022/06/24 02:21:38;;;;;;;4.85;3.05;;;;;;;;;;5071972;28;20109;-71
2022/06/24 02:24:05;;;;;;;5.93;3.10;;;;;;;;;;5072308;28;20047;-71
2022/06/24 02:26:31;;;;;;;6.45;2.75;;;;;;;;;;5080518;28;20060;-71
2022/06/24 02:28:57;;;;;;;4.20;2.60;;;;;;;;;;5080421;28;20064;-71
2022/06/24 02:31:23;;;;;;;3.42;2.60;;;;;;;;;;5065032;28;20069;-71
2022/06/24 02:33:50;;;;;;;3.38;2.75;;;;;;;;;;5064702;28;20052;-71
2022/06/24 02:36:16;;;;;;;5.00;2.47;;;;;;;;;;5078801;28;20090;-71
2022/06/24 02:38:43;;;;;;;4.70;2.95;;;;;;;;;;5080472;28;20274;-71
2022/06/24 02:41:09;;;;;;;3.85;2.85;;;;;;;;;;5065471;28;20045;-71
2022/06/24 02:43:36;;;;;;;3.72;3.03;;;;;;;;;;5083992;28;20572;-70
2022/06/24 02:46:03;;;;;;;8.40;3.30;;;;;;;;;;5100215;28;20050;-71
2022/06/24 02:48:30;;;;;;;7.28;3.78;;;;;;;;;;5071356;28;20088;-71
2022/06/24 02:50:57;;;;;;;4.22;3.28;;;;;;;;;;5083661;28;20045;-71
2022/06/24 02:53:25;;;;;;;9.00;3.30;;;;;;;;;;5084038;28;20519;-71
2022/06/24 02:56:01;;;;;;;4.50;3.38;;;;;;;;;;5073871;28;20497;-70
2022/06/24 02:58:27;;;;;;;6.25;3.60;;;;;;;;;;5082036;28;20492;-70
2022/06/24 03:00:54;;;;;;;3.37;3.07;;;;;;;;;;5084132;28;20071;-71
2022/06/24 03:03:21;;;;;;;6.82;3.25;;;;;;;;;;5070129;28;20312;-71
2022/06/24 03:05:47;;;;;;;5.68;3.30;;;;;;;;;;5084550;28;20028;-71
2022/06/24 03:08:14;;;;;;;9.05;4.45;;;;;;;;;;5070530;28;20061;-71
2022/06/24 03:10:40;;;;;;;4.75;3.83;;;;;;;;;;5093829;28;20084;-71
2022/06/24 03:13:06;;;;;;;6.07;3.85;;;;;;;;;;5064320;28;20101;-71
2022/06/24 03:15:33;;;;;;;7.47;3.80;;;;;;;;;;5083564;28;20049;-71
2022/06/24 03:17:59;;;;;;;5.55;4.03;;;;;;;;;;5084401;28;20108;-71
2022/06/24 03:20:26;;;;;;;6.03;3.78;;;;;;;;;;5068321;28;20381;-71
2022/06/24 03:22:52;;;;;;;8.18;3.45;;;;;;;;;;5064518;28;20051;-71
2022/06/24 03:25:18;;;;;;;5.50;4.10;;;;;;;;;;5064358;28;20045;-71
2022/06/24 03:27:44;;;;;;;5.68;3.42;;;;;;;;;;5070692;28;20044;-71
2022/06/24 03:30:11;;;;;;;7.32;3.30;;;;;;;;;;5071942;28;20523;-71
2022/06/24 03:32:37;;;;;;;4.18;3.67;;;;;;;;;;5064237;28;20037;-71
2022/06/24 03:35:04;;;;;;;6.53;3.42;;;;;;;;;;5079489;28;20485;-71
2022/06/24 03:37:30;;;;;;;6.10;3.90;;;;;;;;;;5093899;28;20049;-72
2022/06/24 03:39:56;;;;;;;5.70;3.22;;;;;;;;;;5064239;28;20049;-71
2022/06/24 03:42:22;;;;;;;4.97;3.00;;;;;;;;;;5080595;28;20051;-71
2022/06/24 03:44:49;;;;;;;5.72;3.00;;;;;;;;;;5077287;28;20051;-71
2022/06/24 03:47:15;;;;;;;5.95;3.22;;;;;;;;;;5077131;28;20064;-72
2022/06/24 03:49:41;;;;;;;10.15;3.50;;;;;;;;;;5069104;28;20104;-70
2022/06/24 03:52:08;;;;;;;5.30;3.08;;;;;;;;;;5083789;28;20496;-70
2022/06/24 03:54:34;;;;;;;4.95;3.58;;;;;;;;;;5084044;28;20091;-70
2022/06/24 03:57:00;;;;;;;5.95;3.17;;;;;;;;;;5075920;28;20424;-71
2022/06/24 03:59:26;;;;;;;4.63;3.30;;;;;;;;;;5063937;28;20052;-70
2022/06/24 04:01:52;;;;;;;6.85;3.20;;;;;;;;;;5063951;28;20044;-70
2022/06/24 04:04:18;;;;;;;6.28;3.45;;;;;;;;;;5063957;28;20044;-70
2022/06/24 04:06:45;;;;;;;6.80;3.70;;;;;;;;;;5079446;28;20037;-70
2022/06/24 04:09:11;;;;;;;4.03;3.58;;;;;;;;;;5063963;28;20048;-70
2022/06/24 04:11:38;;;;;;;7.55;3.13;;;;;;;;;;5063870;28;20037;-70
2022/06/24 04:14:04;;;;;;;5.43;3.38;;;;;;;;;;5075483;28;20041;-70
2022/06/24 04:16:30;;;;;;;3.63;3.25;;;;;;;;;;5072516;28;20120;-71
2022/06/24 04:18:56;;;;;;;7.55;3.22;;;;;;;;;;5083020;28;20057;-71
2022/06/24 04:21:22;;;;;;;14.13;4.13;;;;;;;;;;5082955;28;20064;-71
2022/06/24 04:23:49;;;;;;;4.47;3.17;;;;;;;;;;5072111;28;20044;-71
2022/06/24 04:26:15;;;;;;;6.57;3.10;;;;;;;;;;5076592;28;20083;-72
2022/06/24 04:28:41;;;;;;;3.80;3.10;;;;;;;;;;5082832;28;20480;-71
2022/06/24 04:31:07;;;;;;;6.93;3.50;;;;;;;;;;5067149;28;20045;-72
2022/06/24 04:33:34;;;;;;;7.40;3.35;;;;;;;;;;5082513;28;20049;-72
2022/06/24 04:36:00;;;;;;;5.15;3.65;;;;;;;;;;5067110;28;20045;-72
2022/06/24 04:38:26;;;;;;;5.55;3.55;;;;;;;;;;5067178;28;20044;-72
2022/06/24 04:40:52;;;;;;;5.88;3.00;;;;;;;;;;5081182;28;20098;-72
2022/06/24 04:43:18;;;;;;;9.07;3.58;;;;;;;;;;5067243;28;20069;-72
2022/06/24 04:45:45;;;;;;;5.13;3.50;;;;;;;;;;5082345;28;20155;-73
2022/06/24 04:48:13;;;;;;;7.67;3.10;;;;;;;;;;5092270;28;20432;-72
2022/06/24 04:50:39;;;;;;;13.52;3.35;;;;;;;;;;5085729;28;20543;-72
2022/06/24 04:53:05;;;;;;;4.30;3.13;;;;;;;;;;5082625;28;20080;-72
2022/06/24 04:55:31;;;;;;;7.10;3.15;;;;;;;;;;5066834;28;20084;-72
2022/06/24 04:57:57;;;;;;;9.60;3.78;;;;;;;;;;5066656;28;20068;-72
2022/06/24 05:00:23;;;;;;;6.03;2.95;;;;;;;;;;5066495;28;20048;-71
2022/06/24 05:02:49;;;;;;;4.53;3.20;;;;;;;;;;5080808;28;20079;-71
2022/06/24 05:05:16;;;;;;;5.05;3.33;;;;;;;;;;5080451;28;20125;-71
2022/06/24 05:07:42;;;;;;;6.22;3.63;;;;;;;;;;5066602;28;20096;-71
2022/06/24 05:10:08;;;;;;;10.85;3.15;;;;;;;;;;5066593;28;20407;-71
2022/06/24 05:12:34;;;;;;;5.75;3.35;;;;;;;;;;5092421;28;20052;-71
2022/06/24 05:15:00;;;;;;;7.47;3.33;;;;;;;;;;5086119;28;20106;-71
2022/06/24 05:17:27;;;;;;;5.03;3.42;;;;;;;;;;5077961;28;20488;-71
2022/06/24 05:19:53;;;;;;;4.97;3.13;;;;;;;;;;5066962;28;20124;-72
2022/06/24 05:22:20;;;;;;;8.32;3.25;;;;;;;;;;5079561;28;20041;-72
2022/06/24 05:24:46;;;;;;;10.25;4.15;;;;;;;;;;5066032;28;20105;-71
2022/06/24 05:27:12;;;;;;;6.07;2.97;;;;;;;;;;5081494;28;20123;-71
2022/06/24 05:29:38;;;;;;;11.68;3.10;;;;;;;;;;5066155;28;20097;-72
2022/06/24 05:32:05;;;;;;;7.18;3.08;;;;;;;;;;5066082;28;20045;-72
2022/06/24 05:34:31;;;;;;;5.40;3.10;;;;;;;;;;5065880;28;20061;-71
2022/06/24 05:36:57;;;;;;;5.40;3.13;;;;;;;;;;5066826;28;20504;-72
2022/06/24 05:39:23;;;;;;;16.48;3.88;;;;;;;;;;5078918;28;20870;-71
2022/06/24 05:41:49;;;;;;;7.13;3.05;;;;;;;;;;5065879;28;20056;-71
2022/06/24 05:44:15;;;;;;;8.65;2.70;;;;;;;;;;5065746;28;20053;-71
2022/06/24 05:46:42;;;;;;;4.68;3.50;;;;;;;;;;5065825;28;20047;-71
2022/06/24 05:49:08;;;;;;;8.25;3.63;;;;;;;;;;5083332;28;20090;-71
2022/06/24 05:51:36;;;;;;;7.90;4.38;;;;;;;;;;5085589;28;20040;-71
2022/06/24 05:56:47;;;;;;;9.55;5.80;;;;;;;;;;5094906;28;20627;-70
2022/06/24 05:59:13;;;;;;;9.57;5.30;;;;;;;;;;5065428;28;20057;-70
2022/06/24 06:01:39;;;;;;;10.45;5.75;;;;;;;;;;5065572;28;20048;-70
2022/06/24 06:04:06;;;;;;;10.25;6.10;;;;;;;;;;5065274;28;20045;-71
2022/06/24 06:06:32;;;;;;;10.30;6.25;;;;;;;;;;5065253;28;20101;-70
2022/06/24 06:08:58;;;;;;;11.18;6.28;;;;;;;;;;5080725;28;20063;-71
2022/06/24 06:11:24;;;;;;;13.55;6.93;;;;;;;;;;5065139;28;20082;-71
2022/06/24 06:13:52;;;;;;;15.52;7.57;;;;;;;;;;5072076;28;20450;-70
2022/06/24 06:16:18;;;;;;;9.35;5.97;;;;;;;;;;5084063;28;20116;-70
2022/06/24 06:18:45;;;;;;;9.40;6.10;;;;;;;;;;5065959;28;20522;-70
2022/06/24 06:21:11;;;;;;;12.97;6.37;;;;;;;;;;5076449;28;20531;-70
2022/06/24 06:23:39;;;;;;;17.10;6.25;;;;;;;;;;5081626;28;20049;-70
2022/06/24 06:26:05;;;;;;;39.47;13.85;;;;;;;;;;5075570;28;20036;-70
2022/06/24 06:28:32;;;;;;;22.75;9.15;;;;;;;;;;5069102;28;20044;-71
2022/06/24 06:30:58;;;;;;;20.73;10.57;;;;;;;;;;5065081;28;20051;-69
2022/06/24 06:33:25;;;;;;;21.33;10.50;;;;;;;;;;5078679;28;20044;-68
2022/06/24 06:35:51;;;;;;;16.38;8.13;;;;;;;;;;5064264;28;20049;-68
2022/06/24 06:38:17;;;;;;;16.80;8.93;;;;;;;;;;5064913;28;20101;-67
2022/06/24 06:40:43;;;;;;;24.48;8.65;;;;;;;;;;5064589;28;20098;-67
2022/06/24 06:43:10;;;;;;;22.77;9.70;;;;;;;;;;5080580;28;20123;-67
2022/06/24 06:45:36;;;;;;;20.45;10.75;;;;;;;;;;5078684;28;20052;-67
2022/06/24 06:48:03;;;;;;;20.77;10.57;;;;;;;;;;5064687;28;20049;-66
2022/06/24 06:50:29;;;;;;;26.83;11.85;;;;;;;;;;5075204;28;20131;-67
2022/06/24 06:52:55;;;;;;;27.80;16.15;;;;;;;;;;5081696;28;20060;-67
2022/06/24 06:55:23;;;;;;;31.02;19.60;;;;;;;;;;5064511;28;20041;-67
2022/06/24 06:57:50;;;;;;;44.28;23.05;;;;;;;;;;5065379;28;20549;-68
2022/06/24 07:00:16;;;;;;;;;;;;;;;;;;5077989;28;20068;-69
2022/06/24 07:02:42;;;;;;;35.35;23.20;;;;;;;;;;5064482;28;19957;-68
2022/06/24 07:05:09;;;;;;;38.28;23.08;;;;;;;;;;5064319;28;20098;-69
2022/06/24 07:07:35;;;;;;;42.38;24.52;;;;;;;;;;5075936;28;20071;-69
2022/06/24 07:10:01;;;;;;;39.20;23.08;;;;;;;;;;5080796;28;20082;-69
2022/06/24 07:12:28;;;;;;;33.22;22.70;;;;;;;;;;5064626;28;20045;-68
2022/06/24 07:14:54;;;;;;;40.67;21.27;;;;;;;;;;5064129;28;20045;-67
2022/06/24 07:17:20;;;;;;;30.55;20.17;;;;;;;;;;5079733;28;20048;-67
2022/06/24 07:19:46;;;;;;;38.75;21.77;;;;;;;;;;5064519;28;20063;-67
2022/06/24 07:22:13;;;;;;;37.53;19.08;;;;;;;;;;5064538;28;20033;-67
2022/06/24 07:24:39;;;;;;;30.97;16.57;;;;;;;;;;5064491;28;20040;-67
2022/06/24 07:27:06;;;;;;;28.85;17.83;;;;;;;;;;5064193;28;20076;-67
2022/06/24 07:29:33;;;;;;;30.52;18.65;;;;;;;;;;5064206;28;20044;-66
2022/06/24 07:32:00;;;;;;;28.17;17.58;;;;;;;;;;5079911;28;20060;-67
2022/06/24 07:34:26;;;;;;;29.33;19.73;;;;;;;;;;5064223;28;20037;-67
2022/06/24 07:36:53;;;;;;;43.63;20.48;;;;;;;;;;5064206;28;20120;-67
2022/06/24 07:39:19;;;;;;;33.28;20.38;;;;;;;;;;5070951;28;20044;-68
2022/06/24 07:41:45;;;;;;;30.52;19.02;;;;;;;;;;5071452;28;20492;-66
2022/06/24 07:44:11;;;;;;;36.58;18.83;;;;;;;;;;5063885;28;20049;-66
2022/06/24 07:46:37;;;;;;;40.70;20.45;;;;;;;;;;5065229;28;20091;-66
2022/06/24 07:49:03;;;;;;;36.25;20.55;;;;;;;;;;5067853;28;20045;-65
2022/06/24 07:51:30;;;;;;;28.60;18.92;;;;;;;;;;5086849;28;20040;-66
2022/06/24 07:53:56;;;;;;;25.98;17.27;;;;;;;;;;5087618;28;20139;-65
2022/06/24 07:59:07;;;;;;;32.85;18.88;;;;;;;;;;5076302;28;20051;-66
2022/06/24 08:01:33;;;;;;;29.25;17.30;;;;;;;;;;5071311;28;20040;-65
2022/06/24 08:04:00;;;;;;;36.85;19.58;;;;;;;;;;5077739;28;20117;-65
2022/06/24 08:06:26;;;;;;;23.48;12.25;;;;;;;;;;5097319;28;20066;-66
2022/06/24 08:08:52;;;;;;;24.23;13.82;;;;;;;;;;5087319;28;20106;-64
2022/06/24 08:11:18;;;;;;;19.88;12.00;;;;;;;;;;5083560;28;20045;-65
2022/06/24 08:13:44;;;;;;;23.50;12.52;;;;;;;;;;5072102;28;20206;-65
2022/06/24 08:16:11;;;;;;;23.00;13.02;;;;;;;;;;5087633;28;20050;-65
2022/06/24 08:18:37;;;;;;;18.00;12.45;;;;;;;;;;5076000;28;20076;-65
2022/06/24 08:21:03;;;;;;;19.60;12.98;;;;;;;;;;5082859;28;20503;-65
2022/06/24 08:23:29;;;;;;;22.58;12.02;;;;;;;;;;5074905;28;20037;-65
2022/06/24 08:25:55;;;;;;;23.70;14.90;;;;;;;;;;5067686;28;20123;-65
2022/06/24 08:28:21;;;;;;;24.27;13.20;;;;;;;;;;5079544;28;20048;-65
2022/06/24 08:30:48;;;;;;;16.77;11.10;;;;;;;;;;5067254;28;20041;-65
2022/06/24 08:33:14;;;;;;;17.42;8.40;;;;;;;;;;5066799;28;20057;-65
2022/06/24 08:35:40;;;;;;;17.85;9.93;;;;;;;;;;5085627;28;20059;-65
2022/06/24 08:38:06;;;;;;;18.38;8.25;;;;;;;;;;5068380;28;20564;-64
2022/06/24 08:40:32;;;;;;;15.38;7.38;;;;;;;;;;5087181;28;20093;-65
2022/06/24 08:42:59;;;;;;;11.48;6.70;;;;;;;;;;5088751;28;20106;-65
2022/06/24 08:45:26;;;;;;;12.27;6.40;;;;;;;;;;5086804;28;20052;-65
2022/06/24 08:47:52;;;;;;;16.77;7.73;;;;;;;;;;5086170;28;20041;-64
2022/06/24 08:50:19;;;;;;;12.77;7.00;;;;;;;;;;5086699;28;20293;-66
2022/06/24 08:52:47;;;;;;;12.95;8.02;;;;;;;;;;5084808;28;20041;-65
2022/06/24 08:55:16;;;;;;;18.05;7.35;;;;;;;;;;5076168;28;20132;-66
2022/06/24 08:57:44;;;;;;;15.30;7.88;;;;;;;;;;5066793;28;20041;-66
2022/06/24 09:00:11;;;;;;;17.38;7.28;;;;;;;;;;5077305;28;20051;-66
2022/06/24 09:02:37;;;;;;;14.02;6.25;;;;;;;;;;5086454;28;20131;-66
2022/06/24 09:05:13;;;;;;;14.45;6.50;;;;;;;;;;5101926;28;20076;-66
2022/06/24 09:07:39;;;;;;;13.95;6.95;;;;;;;;;;5086423;28;20048;-66
2022/06/24 09:10:09;;;;;;;14.98;7.60;;;;;;;;;;5083943;28;20506;-66
2022/06/24 09:12:39;;;;;;;13.48;7.68;;;;;;;;;;5082081;28;20048;-66
2022/06/24 09:15:06;;;;;;;13.68;7.13;;;;;;;;;;5082907;28;20045;-66
2022/06/24 09:17:33;;;;;;;13.93;7.90;;;;;;;;;;5086066;28;20128;-66
2022/06/24 09:20:05;;;;;;;14.97;7.70;;;;;;;;;;5086282;28;20127;-67
2022/06/24 09:22:32;;;;;;;13.55;7.95;;;;;;;;;;5081385;28;20053;-67
2022/06/24 09:24:59;;;;;;;11.95;8.45;;;;;;;;;;5087178;28;20069;-70
2022/06/24 09:27:26;;;;;;;12.75;8.80;;;;;;;;;;5077031;28;20079;-70
2022/06/24 09:29:52;;;;;;;12.50;8.32;;;;;;;;;;5085880;28;20049;-70
2022/06/24 09:32:19;;;;;;;15.32;8.10;;;;;;;;;;5085820;28;20096;-71
2022/06/24 09:35:05;;;;;;;14.38;8.35;;;;;;;;;;5082054;28;20140;-71
2022/06/24 09:37:38;;;;;;;17.48;8.50;;;;;;;;;;5081997;28;20052;-70
2022/06/24 09:40:23;;;;;;;14.13;7.97;;;;;;;;;;5084973;28;20094;-70
2022/06/24 09:43:15;;;;;;;14.25;8.27;;;;;;;;;;5094001;28;20045;-69
2022/06/24 09:45:47;;;;;;;14.20;8.48;;;;;;;;;;5071819;28;20459;-70
2022/06/24 09:48:27;;;;;;;19.35;9.65;;;;;;;;;;5089042;28;20040;-69
2022/06/24 09:50:57;;;;;;;12.35;8.68;;;;;;;;;;5083544;28;20040;-70
2022/06/24 09:53:27;;;;;;;18.35;10.90;;;;;;;;;;5068949;28;20080;-69
2022/06/24 09:55:54;;;;;;;14.82;11.23;;;;;;;;;;5079534;28;20036;-68
2022/06/24 09:58:21;;;;;;;20.20;10.75;;;;;;;;;;5080341;28;20041;-69
2022/06/24 10:00:49;;;;;;;16.38;9.65;;;;;;;;;;5077318;28;20126;-67
2022/06/24 10:03:15;;;;;;;15.65;10.00;;;;;;;;;;5079261;28;20047;-68
2022/06/24 10:05:44;;;;;;;17.80;8.68;;;;;;;;;;5074735;28;20053;-68
2022/06/24 10:08:12;;;;;;;13.75;8.00;;;;;;;;;;5071787;28;20044;-68
2022/06/24 10:10:40;;;;;;;20.75;10.05;;;;;;;;;;5071546;28;20040;-68
2022/06/24 10:13:12;;;;;;;13.85;7.72;;;;;;;;;;5080496;28;20052;-67
2022/06/24 10:15:38;;;;;;;11.02;7.70;;;;;;;;;;5075545;28;20079;-67
2022/06/24 10:18:08;;;;;;;21.00;10.05;;;;;;;;;;5079018;28;20044;-68
2022/06/24 10:20:35;;;;;;;15.98;8.90;;;;;;;;;;5071600;28;20100;-67
2022/06/24 10:23:01;;;;;;;12.40;6.97;;;;;;;;;;5080002;28;20105;-66
2022/06/24 10:25:53;;;;;;;16.83;8.00;;;;;;;;;;5079132;28;20123;-68
2022/06/24 10:28:19;;;;;;;21.13;10.23;;;;;;;;;;5083307;28;20056;-68
2022/06/24 10:30:57;;;;;;;19.30;11.13;;;;;;;;;;5082605;28;20052;-67
2022/06/24 10:33:26;;;;;;;20.92;10.38;;;;;;;;;;5087259;28;20073;-69
2022/06/24 10:35:56;;;;;;;17.15;11.45;;;;;;;;;;5073864;28;20040;-68
2022/06/24 10:38:23;;;;;;;16.23;10.75;;;;;;;;;;5080989;28;20036;-70
2022/06/24 10:40:50;;;;;;;23.35;12.70;;;;;;;;;;5084435;28;20045;-70
2022/06/24 10:43:54;;;;;;;25.83;14.43;;;;;;;;;;5076985;28;20426;-68
2022/06/24 10:46:20;;;;;;;31.13;15.18;;;;;;;;;;5061617;28;20049;-69
2022/06/24 10:48:52;;;;;;;25.88;13.07;;;;;;;;;;5053758;28;20068;-73
2022/06/24 10:51:20;;;;;;;28.58;14.32;;;;;;;;;;5019702;28;20040;-73
2022/06/24 10:53:46;;;;;;;;;;;;;;;;;;5062172;28;20083;-72
2022/06/24 10:56:32;;;;;;;27.48;16.15;;;;;;;;;;5061615;28;19928;-70
2022/06/24 10:58:58;;;;;;;25.58;14.93;;;;;;;;;;5054766;28;20046;-68
2022/06/24 11:01:24;;;;;;;13.27;9.30;;;;;;;;;;5056028;28;20105;-69
2022/06/24 11:03:52;;;;;;;20.17;11.27;;;;;;;;;;5059827;28;20109;-69
2022/06/24 11:06:18;;;;;;;14.05;10.23;;;;;;;;;;5057280;28;20070;-70
2022/06/24 11:08:44;;;;;;;11.27;9.30;;;;;;;;;;5055890;28;20037;-70
2022/06/24 11:11:24;;;;;;;13.57;10.55;;;;;;;;;;5061503;28;20067;-70
2022/06/24 11:13:51;;;;;;;18.02;10.52;;;;;;;;;;5060090;28;20127;-68
2022/06/24 11:16:17;;;;;;;11.45;6.65;;;;;;;;;;5059887;28;20131;-69
2022/06/24 11:18:43;;;;;;;7.78;5.22;;;;;;;;;;5056574;28;20059;-69
2022/06/24 11:21:10;;;;;;;10.63;5.47;;;;;;;;;;5070481;28;20048;-69
2022/06/24 11:23:37;;;;;;;10.60;6.10;;;;;;;;;;5092393;28;20148;-66
2022/06/24 11:26:03;;;;;;;;;;;;;;;;;;5094587;28;20075;-68
2022/06/24 11:28:32;;;;;;;8.90;5.10;;;;;;;;;;5090826;28;19920;-70
2022/06/24 11:31:14;;;;;;;14.43;6.70;;;;;;;;;;5101939;28;20049;-69
2022/06/24 11:33:40;;;;;;;9.25;6.80;;;;;;;;;;5088205;28;20108;-69
2022/06/24 11:36:08;;;;;;;8.18;5.80;;;;;;;;;;5094645;28;20120;-65
2022/06/24 11:38:36;;;;;;;9.90;7.25;;;;;;;;;;5085971;28;20044;-65
2022/06/24 11:41:02;;;;;;;;;;;;;;;;;;5099229;28;20092;-65
2022/06/24 11:43:28;;;;;;;9.85;8.02;;;;;;;;;;5084975;28;19969;-65
2022/06/24 11:45:57;;;;;;;14.68;9.43;;;;;;;;;;5079912;28;20045;-65
2022/06/24 11:48:24;;;;;;;19.70;11.02;;;;;;;;;;5087558;28;20051;-65
2022/06/24 11:50:54;;;;;;;17.90;12.00;;;;;;;;;;5095695;28;20179;-66
2022/06/24 11:53:24;;;;;;;20.50;12.32;;;;;;;;;;5083502;28;20072;-67
2022/06/24 11:55:50;;;;;;;13.80;9.98;;;;;;;;;;5097457;28;20056;-65
2022/06/24 11:58:18;;;;;;;15.45;11.15;;;;;;;;;;5082415;28;20449;-65
2022/06/24 12:00:45;;;;;;;14.00;9.18;;;;;;;;;;5087670;28;20053;-66
2022/06/24 12:03:11;;;;;;;10.35;8.40;;;;;;;;;;5082882;28;20112;-65
2022/06/24 12:05:41;;;;;;;12.50;7.88;;;;;;;;;;5087748;28;20079;-65
2022/06/24 12:08:08;;;;;;;9.45;7.00;;;;;;;;;;5084903;28;20076;-63
2022/06/24 12:10:35;;;;;;;10.25;7.47;;;;;;;;;;5084682;28;20040;-66
2022/06/24 12:13:03;;;;;;;10.82;6.60;;;;;;;;;;5087675;28;20394;-65
2022/06/24 12:15:35;;;;;;;12.40;7.22;;;;;;;;;;5082722;28;20155;-72
2022/06/24 12:18:02;;;;;;;8.32;6.13;;;;;;;;;;5086296;28;20048;-68
2022/06/24 12:20:29;;;;;;;7.10;5.03;;;;;;;;;;5083596;28;20087;-67
2022/06/24 12:23:14;;;;;;;8.40;4.80;;;;;;;;;;5087415;28;20096;-71
2022/06/24 12:25:44;;;;;;;11.13;6.10;;;;;;;;;;5071679;28;20049;-67
2022/06/24 12:28:15;;;;;;;9.00;5.53;;;;;;;;;;5082637;28;20079;-66
2022/06/24 12:30:44;;;;;;;10.35;4.60;;;;;;;;;;5086630;28;20082;-65
2022/06/24 12:33:17;;;;;;;5.45;4.82;;;;;;;;;;5083921;28;20104;-65
2022/06/24 12:35:45;;;;;;;9.20;5.65;;;;;;;;;;5079349;28;20044;-63
2022/06/24 12:38:12;;;;;;;7.55;5.65;;;;;;;;;;5085609;28;20102;-63
2022/06/24 12:40:39;;;;;;;7.18;5.75;;;;;;;;;;5086600;28;20043;-64
2022/06/24 12:43:09;;;;;;;6.65;4.78;;;;;;;;;;5080462;28;20044;-63
2022/06/24 12:45:37;;;;;;;5.85;5.00;;;;;;;;;;5086702;28;20515;-63
2022/06/24 12:50:58;;;;;;;6.93;4.32;;;;;;;;;;5073955;28;20052;-66
2022/06/24 12:53:24;;;;;;;9.05;4.05;;;;;;;;;;5070974;28;20123;-66
2022/06/24 12:55:52;;;;;;;6.55;4.07;;;;;;;;;;5068464;28;20076;-63
2022/06/24 12:58:18;;;;;;;7.47;4.05;;;;;;;;;;5078494;28;20518;-63
2022/06/24 13:00:44;;;;;;;7.43;4.30;;;;;;;;;;5082113;28;20044;-63
2022/06/24 13:03:10;;;;;;;8.10;5.05;;;;;;;;;;5085038;28;20047;-63
2022/06/24 13:05:37;;;;;;;4.88;3.83;;;;;;;;;;5087137;28;20116;-63
2022/06/24 13:08:03;;;;;;;6.30;3.83;;;;;;;;;;5086645;28;20104;-63
2022/06/24 13:10:29;;;;;;;7.65;4.47;;;;;;;;;;5086842;28;20056;-63
2022/06/24 13:12:55;;;;;;;7.60;3.47;;;;;;;;;;5086876;28;20048;-63
2022/06/24 13:15:22;;;;;;;5.63;3.80;;;;;;;;;;5086618;28;20044;-63
2022/06/24 13:17:49;;;;;;;8.57;4.10;;;;;;;;;;5086768;28;20051;-63
2022/06/24 13:20:15;;;;;;;6.07;3.95;;;;;;;;;;5085910;28;20111;-63
2022/06/24 13:22:42;;;;;;;6.40;4.03;;;;;;;;;;5086770;28;20052;-63
2022/06/24 13:25:08;;;;;;;;;;;;;;;;;;5086950;28;20136;-63
2022/06/24 13:27:34;;;;;;;8.77;4.90;;;;;;;;;;5102008;28;19920;-64
2022/06/24 13:30:01;;;;;;;6.05;4.72;;;;;;;;;;5084783;28;20086;-63
2022/06/24 13:32:27;;;;;;;11.18;6.25;;;;;;;;;;5086013;28;20075;-64
2022/06/24 13:34:53;;;;;;;7.78;6.80;;;;;;;;;;5085850;28;20044;-63
2022/06/24 13:37:19;;;;;;;9.55;7.15;;;;;;;;;;5071557;28;20110;-63
2022/06/24 13:39:45;;;;;;;7.20;6.30;;;;;;;;;;5097952;28;20108;-63
2022/06/24 13:42:11;;;;;;;7.40;6.40;;;;;;;;;;5083147;28;20040;-64
2022/06/24 13:44:37;;;;;;;6.78;6.07;;;;;;;;;;5085821;28;20076;-63
2022/06/24 13:47:04;;;;;;;7.68;6.72;;;;;;;;;;5085808;28;20079;-63
2022/06/24 13:49:30;;;;;;;7.32;6.55;;;;;;;;;;5099158;28;20079;-63
2022/06/24 13:51:56;;;;;;;8.70;7.30;;;;;;;;;;5085019;28;20040;-63
2022/06/24 13:54:23;;;;;;;9.33;6.97;;;;;;;;;;5078282;28;20060;-64
2022/06/24 13:56:49;;;;;;;8.88;6.85;;;;;;;;;;5085692;28;20040;-63
2022/06/24 13:59:15;;;;;;;8.20;7.40;;;;;;;;;;5085437;28;20048;-63
2022/06/24 14:01:41;;;;;;;9.75;8.35;;;;;;;;;;5085523;28;20044;-63
2022/06/24 14:04:07;;;;;;;8.90;8.00;;;;;;;;;;5085249;28;20037;-63
2022/06/24 14:06:34;;;;;;;10.20;7.28;;;;;;;;;;5079105;28;20051;-63
2022/06/24 14:09:00;;;;;;;8.95;8.02;;;;;;;;;;5084046;28;20609;-63
2022/06/24 14:11:26;;;;;;;8.82;7.32;;;;;;;;;;5085309;28;20056;-63
2022/06/24 14:13:52;;;;;;;8.07;6.78;;;;;;;;;;5084892;28;20040;-63
2022/06/24 14:16:18;;;;;;;7.65;5.93;;;;;;;;;;5078017;28;20055;-63
2022/06/24 14:18:44;;;;;;;11.98;8.30;;;;;;;;;;5085200;28;20093;-63
2022/06/24 14:21:10;;;;;;;11.75;8.07;;;;;;;;;;5085228;28;20430;-63
2022/06/24 14:26:21;;;;;;;9.18;8.30;;;;;;;;;;5084149;28;20069;-64
2022/06/24 14:28:51;;;;;;;9.32;8.43;;;;;;;;;;5077914;28;20041;-63
2022/06/24 14:31:17;;;;;;;10.98;9.88;;;;;;;;;;5077414;28;20033;-63
2022/06/24 14:33:43;;;;;;;10.30;9.00;;;;;;;;;;5080212;28;20044;-63
2022/06/24 14:36:09;;;;;;;10.02;7.57;;;;;;;;;;5085116;28;20047;-63
2022/06/24 14:41:20;;;;;;;8.25;7.40;;;;;;;;;;5084832;28;20043;-64
2022/06/24 14:43:47;;;;;;;15.57;8.23;;;;;;;;;;5084724;28;20070;-64
2022/06/24 14:46:13;;;;;;;8.07;7.30;;;;;;;;;;5084603;28;20531;-64
2022/06/24 14:48:39;;;;;;;11.10;7.63;;;;;;;;;;5084761;28;20366;-64
2022/06/24 14:51:06;;;;;;;8.43;7.60;;;;;;;;;;5078514;28;20036;-64
2022/06/24 14:53:32;;;;;;;8.63;7.85;;;;;;;;;;5079709;28;20049;-65